This is the latest recevied weather packets stored in our database for station/object SP1BMW-13. If no packets are shown the sender has not sent any weather packets the latest 10 day(s).
| Time | Temp. | Humidity | Pressure | Rain* | Wind** | Luminosity | Snow |
|---|---|---|---|---|---|---|---|
| 1778198099 | 6.11° C | 81% | 1018.5 hPa | 0 mm | 0 m/s | 0 W/m² | - |
| 1778198038 | 6.11° C | 81% | 1018.4 hPa | 0 mm | 0.89 m/s, 316° | 0 W/m² | - |
| 1778197982 | 6.11° C | 81% | 1018.7 hPa | 0 mm | 0.89 m/s, 52° | 0 W/m² | - |
| 1778197918 | 6.11° C | 81% | 1018.6 hPa | 0 mm | 0.89 m/s, 47° | 0 W/m² | - |
| 1778197858 | 6.11° C | 81% | 1018.5 hPa | 0 mm | 0.89 m/s, 29° | 0 W/m² | - |
| 1778197799 | 6.11° C | 81% | 1018.6 hPa | 0 mm | 0.89 m/s, 39° | 0 W/m² | - |
| 1778197738 | 6.11° C | 81% | 1018.7 hPa | 0 mm | 0 m/s | 0 W/m² | - |
| 1778197678 | 6.11° C | 80% | 1018.6 hPa | 0 mm | 0.89 m/s, 32° | 0 W/m² | - |
| 1778197618 | 6.11° C | 80% | 1018.6 hPa | 0 mm | 0.89 m/s, 49° | 0 W/m² | - |
| 1778197559 | 6.11° C | 80% | 1018.6 hPa | 0 mm | 0.45 m/s, 32° | 0 W/m² | - |
| 1778197498 | 6.11° C | 80% | 1018.5 hPa | 0 mm | 0 m/s | 0 W/m² | - |
| 1778197438 | 6.11° C | 80% | 1018.6 hPa | 0 mm | 0.45 m/s, 117° | 0 W/m² | - |
| 1778197378 | 6.11° C | 80% | 1018.4 hPa | 0 mm | 0.45 m/s, 45° | 0 W/m² | - |
| 1778197318 | 6.11° C | 80% | 1018.6 hPa | 0 mm | 0.45 m/s, 59° | 0 W/m² | - |
| 1778197258 | 6.11° C | 80% | 1018.4 hPa | 0 mm | 0.45 m/s, 358° | 0 W/m² | - |
| 1778197199 | 6.11° C | 80% | 1018.6 hPa | 0 mm | 0.45 m/s, 22° | 0 W/m² | - |
| 1778197139 | 6.11° C | 80% | 1018.5 hPa | 0 mm | 0.89 m/s, 53° | 0 W/m² | - |
| 1778197079 | 6.11° C | 80% | 1018.3 hPa | 0 mm | 1.34 m/s, 38° | 0 W/m² | - |
| 1778197018 | 6.11° C | 80% | 1018.5 hPa | 0 mm | 0.89 m/s, 28° | 0 W/m² | - |
| 1778196959 | 6.11° C | 80% | 1018.6 hPa | 0 mm | 0.45 m/s, 30° | 0 W/m² | - |
| 1778196898 | 6.11° C | 80% | 1018.4 hPa | 0 mm | 2.68 m/s, 335° | 0 W/m² | - |
| 1778196838 | 6.11° C | 80% | 1018.6 hPa | 0 mm | 0.89 m/s, 53° | 0 W/m² | - |
| 1778196779 | 6.11° C | 80% | 1018.6 hPa | 0 mm | 0.89 m/s, 351° | 0 W/m² | - |
| 1778196719 | 6.11° C | 80% | 1018.6 hPa | 0 mm | 1.34 m/s, 299° | 0 W/m² | - |
| 1778196659 | 6.11° C | 80% | 1018.4 hPa | 0 mm | 0.89 m/s, 22° | 0 W/m² | - |
* Rain latest hour (hover to see other rain measurements)
** Current wind speed in m/s (hover to see current wind gust speed)